Terminal Aerodrome Forecast
Issued by NWS Tampa Bay Area, FL

Home | Current Version | Previous Version | Text Only | Print | Product List | Glossary On
Versions: 1 2 3 4 5 6 7 8 9 10 11 12 13 14 15 16 17 18 19
000
FTUS42 KTBW 200533
TAFSRQ
TAF
KSRQ 200533Z 2006/2106 02004KT 4SM BR SKC
      TEMPO 2006/2008 1SM BR SCT005
     FM200800 04004KT 2SM BR SCT005
     FM201400 09006KT P6SM FEW015
     FM201900 15007KT P6SM FEW030
     FM202200 27006KT P6SM FEW050
     FM210000 VRB04KT P6SM SCT050=

USA.gov is the U.S. government's official web portal to all federal, state and local government web resources and services.